Sault Ste Marie Airport
CYAM : now visible

Airfield :











YOU CAN JOIN US ON...

 
LOGIN :

Register | Disclaimer

   EN    FR    IT 

 









Legend :    VFR   Marginal VFR   IFR   Intensive IFR   Very Intensive IFR
Visi :
Ceiling :
>= 8 km
>= 3000ft
5 to 8 km
1000 to 3000 ft
1500m to 5 km
500 to 1000 ft
800 to 1500m
200 to 500 ft
< 800m
< 200 ft
Symbols :   Thunderstorms  Fog  Heavy snow  Heavy precipitations  Wind > 20 kt






- Airport Elevation : 630 ft
- IATA code : YAM


CYAM - Sault Ste Marie

CURRENT METAR :
  • 221312Z 29010KT 20SM FEW007 FEW041 BKN062 04/03 A3014 RMK CF1CU1SC7 CF TR CU TR SLP216

EXPIRED METARs :
  • 221221Z 29008KT 20SM FEW050 BKN059 04/03 A3013 RMK CU1SC7 CU TR SLP213
  • 221200Z 28006KT 20SM FEW049 BKN058 04/03 A3013 RMK CU1SC7 CU TR INTMT -RA SLP211
  • 221100Z 31005KT 12SM -RA FEW046 BKN053 OVC078 04/03 A3011 RMK SC1SC5AC2 SLP204

TAF TAF CYAM
Valid from the 22 at 08:00 until the 22 at 20:00 UTC


220740Z 2208/2220 29010KT P6SM -RA OVC050
TEMPO 2208/2211 3SM BR
FM221100 33010KT 6SM -RA BR OVC030
TEMPO 2211/2215 3SM -RA BR BKN005 OVC015
FM221500 30012KT 6SM -DZ BR OVC010
FM221700 30010G20KT P6SM SCT040 RMK NXT FCST BY 221400Z
CZYZ FIR / North America



MET'MAP, your aeronautical weather chart ! - Copyright ORBIFLY December 2007 - Disclaimer

ORBIFLY MET'MAP TEAM :

Programming & Development : Alexandra Zaïnal
Original concept : Baudouin d'Aumeries
Technical & hardware support : Manuel Goepfert
Assistance : Marc-Olivier Méhu

Contact : metmap@orbifly.com




SOURCES & CREDITS :

   NOAA       Earth
Advisory